createdAt,value
2023-04-09T00:00:12.802Z,9.50
2023-04-09T00:02:39.793Z,9.50
2023-04-09T00:05:07.505Z,9.50
2023-04-09T00:07:34.556Z,9.40
2023-04-09T00:10:01.476Z,9.40
2023-04-09T00:12:30.219Z,9.40
2023-04-09T00:14:57.731Z,9.40
2023-04-09T00:17:24.622Z,9.40
2023-04-09T00:19:52.146Z,9.40
2023-04-09T00:22:18.938Z,9.40
2023-04-09T00:24:45.675Z,9.40
2023-04-09T00:27:12.441Z,9.40
2023-04-09T00:29:39.156Z,9.30
2023-04-09T00:32:06.309Z,9.40
2023-04-09T00:34:33.134Z,9.30
2023-04-09T00:36:59.971Z,9.30
2023-04-09T00:39:26.743Z,9.30
2023-04-09T00:41:58.598Z,9.30
2023-04-09T00:44:25.788Z,9.30
2023-04-09T00:46:53.972Z,9.20
2023-04-09T00:49:21.538Z,9.20
2023-04-09T00:51:48.907Z,9.20
2023-04-09T00:54:16.292Z,9.20
2023-04-09T00:56:43.884Z,9.20
2023-04-09T00:59:10.725Z,9.20
2023-04-09T01:01:37.574Z,9.10
2023-04-09T01:04:04.930Z,9.10
2023-04-09T01:07:30.191Z,9.20
2023-04-09T01:10:15.059Z,9.10
2023-04-09T01:13:09.052Z,9.10
2023-04-09T01:15:42.255Z,9.10
2023-04-09T01:18:13.657Z,9.10
2023-04-09T01:20:43.746Z,9.10
2023-04-09T01:23:10.625Z,9.00
2023-04-09T01:25:58.589Z,9.00
2023-04-09T01:28:32.537Z,9.00
2023-04-09T01:31:09.297Z,9.00
2023-04-09T01:33:38.425Z,8.90
2023-04-09T01:36:07.232Z,8.90
2023-04-09T01:38:36.308Z,8.90
2023-04-09T01:41:05.391Z,8.90
2023-04-09T01:43:33.631Z,8.90
2023-04-09T01:46:03.430Z,8.90
2023-04-09T01:48:31.466Z,8.90
2023-04-09T01:50:59.105Z,8.80
2023-04-09T01:53:28.578Z,8.80
2023-04-09T01:55:58.333Z,8.80
2023-04-09T01:58:26.611Z,8.80
2023-04-09T02:01:00.232Z,8.80
2023-04-09T02:03:34.090Z,8.80
2023-04-09T02:06:17.365Z,8.80
2023-04-09T02:08:46.893Z,8.80
2023-04-09T02:11:15.073Z,8.70
2023-04-09T02:13:44.129Z,8.60
2023-04-09T02:16:13.238Z,8.70
2023-04-09T02:18:40.096Z,8.60
2023-04-09T02:21:07.369Z,8.60
2023-04-09T02:23:35.003Z,8.60
2023-04-09T02:26:01.885Z,8.60
2023-04-09T02:28:28.690Z,8.60
2023-04-09T02:30:55.488Z,8.60
2023-04-09T02:33:22.480Z,8.50
2023-04-09T02:35:49.264Z,8.50
2023-04-09T02:38:16.108Z,8.50
2023-04-09T02:40:43.171Z,8.50
2023-04-09T02:43:10.844Z,8.50
2023-04-09T02:45:37.653Z,8.50
2023-04-09T02:48:04.487Z,8.50
2023-04-09T02:50:31.252Z,8.50
2023-04-09T02:52:58.109Z,8.50
2023-04-09T02:55:25.089Z,8.50
2023-04-09T02:57:51.824Z,8.50
2023-04-09T03:00:18.520Z,8.50
2023-04-09T03:02:45.373Z,8.50
2023-04-09T03:05:12.167Z,8.50
2023-04-09T03:07:39.139Z,8.40
2023-04-09T03:10:06.459Z,8.40
2023-04-09T03:12:33.200Z,8.40
2023-04-09T03:14:59.898Z,8.40
2023-04-09T03:17:27.229Z,8.40
2023-04-09T03:19:54.332Z,8.40
2023-04-09T03:22:21.045Z,8.40
2023-04-09T03:24:48.013Z,8.40
2023-04-09T03:27:14.931Z,8.40
2023-04-09T03:29:41.639Z,8.40
2023-04-09T03:32:08.326Z,8.40
2023-04-09T03:34:35.487Z,8.40
2023-04-09T03:37:02.350Z,8.50
2023-04-09T03:39:30.900Z,8.50
2023-04-09T03:41:58.915Z,8.50
2023-04-09T03:44:26.143Z,8.60
2023-04-09T03:46:53.041Z,8.70
2023-04-09T03:49:19.850Z,8.70
2023-04-09T03:51:46.618Z,8.70
2023-04-09T03:54:13.557Z,8.70
2023-04-09T03:56:40.387Z,8.80
2023-04-09T03:59:07.109Z,8.90
2023-04-09T04:01:34.937Z,8.80
2023-04-09T04:04:02.016Z,8.90
2023-04-09T04:06:28.759Z,9.00
2023-04-09T04:08:55.604Z,9.00
2023-04-09T04:11:22.274Z,9.00
2023-04-09T04:13:49.017Z,9.10
2023-04-09T04:16:15.758Z,9.10
2023-04-09T04:18:42.482Z,9.10
2023-04-09T04:21:16.495Z,9.20
2023-04-09T04:23:43.287Z,9.20
2023-04-09T04:26:11.153Z,9.20
2023-04-09T04:28:38.863Z,9.30
2023-04-09T04:31:12.469Z,9.30
2023-04-09T04:33:40.668Z,9.30
2023-04-09T04:36:08.964Z,9.40
2023-04-09T04:38:36.501Z,9.40
2023-04-09T04:41:03.469Z,9.50
2023-04-09T04:43:30.240Z,9.50
2023-04-09T04:45:56.980Z,9.60
2023-04-09T04:48:23.874Z,9.60
2023-04-09T04:50:58.714Z,9.60
2023-04-09T04:53:25.694Z,9.70
2023-04-09T04:55:52.627Z,9.70
2023-04-09T04:58:19.796Z,9.70
2023-04-09T05:00:47.030Z,9.70
2023-04-09T05:03:14.508Z,9.80
2023-04-09T05:05:41.366Z,9.80
2023-04-09T05:08:08.115Z,9.90
2023-04-09T05:10:34.981Z,9.80
2023-04-09T05:13:01.646Z,9.90
2023-04-09T05:15:28.364Z,9.90
2023-04-09T05:17:55.220Z,9.90
2023-04-09T05:20:22.058Z,10.00
2023-04-09T05:22:48.788Z,10.00
2023-04-09T05:25:16.308Z,10.00
2023-04-09T05:27:43.291Z,10.10
2023-04-09T05:30:10.541Z,10.10
2023-04-09T05:32:37.490Z,10.10
2023-04-09T05:35:04.829Z,10.10
2023-04-09T05:37:31.635Z,10.20
2023-04-09T05:39:58.365Z,10.20
2023-04-09T05:42:25.088Z,10.20
2023-04-09T05:44:51.811Z,10.20
2023-04-09T05:47:18.488Z,10.30
2023-04-09T05:49:45.169Z,10.30
2023-04-09T05:52:11.888Z,10.30
2023-04-09T05:54:38.583Z,10.30
2023-04-09T05:57:05.225Z,10.40
2023-04-09T05:59:32.036Z,10.40
2023-04-09T06:01:58.751Z,10.50
2023-04-09T06:04:25.596Z,10.50
2023-04-09T06:06:52.402Z,10.50
2023-04-09T06:09:19.085Z,10.60
2023-04-09T06:11:45.810Z,10.60
2023-04-09T06:14:16.354Z,10.60
2023-04-09T06:16:43.102Z,10.60
2023-04-09T06:19:09.834Z,10.70
2023-04-09T06:21:36.552Z,10.70
2023-04-09T06:24:03.324Z,10.70
2023-04-09T06:26:30.376Z,10.80
2023-04-09T06:28:57.075Z,10.80
2023-04-09T06:31:23.831Z,10.80
2023-04-09T06:33:51.045Z,10.80
2023-04-09T06:36:18.085Z,10.90
2023-04-09T06:38:44.793Z,10.90
2023-04-09T06:41:12.741Z,10.90
2023-04-09T06:43:39.509Z,11.00
2023-04-09T06:46:06.319Z,11.00
2023-04-09T06:48:33.140Z,11.10
2023-04-09T06:50:59.925Z,11.10
2023-04-09T06:53:26.648Z,11.10
2023-04-09T06:55:55.451Z,11.10
2023-04-09T06:58:23.400Z,11.10
2023-04-09T07:00:50.288Z,11.20
2023-04-09T07:03:17.103Z,11.20
2023-04-09T07:05:44.019Z,11.20
2023-04-09T07:08:11.678Z,11.30
2023-04-09T07:10:38.526Z,11.20
2023-04-09T07:13:05.370Z,11.30
2023-04-09T07:15:32.162Z,11.30
2023-04-09T07:17:58.958Z,11.30
2023-04-09T07:20:25.725Z,11.30
2023-04-09T07:22:52.571Z,11.30
2023-04-09T07:25:19.421Z,11.30
2023-04-09T07:27:46.183Z,11.40
2023-04-09T07:30:13.028Z,11.40
2023-04-09T07:32:40.013Z,11.40
2023-04-09T07:35:09.648Z,11.40
2023-04-09T07:37:36.457Z,11.50
2023-04-09T07:40:04.046Z,11.50
2023-04-09T07:42:31.050Z,11.50
2023-04-09T07:44:57.719Z,11.50
2023-04-09T07:47:24.743Z,11.50
2023-04-09T07:49:51.783Z,11.50
2023-04-09T07:52:19.577Z,11.60
2023-04-09T07:54:46.307Z,11.60
2023-04-09T07:57:13.077Z,11.60
2023-04-09T07:59:39.885Z,11.60
2023-04-09T08:02:07.543Z,11.60
2023-04-09T08:04:34.391Z,11.60
2023-04-09T08:07:01.080Z,11.60
2023-04-09T08:09:27.797Z,11.60
2023-04-09T08:11:54.640Z,11.70
2023-04-09T08:14:21.401Z,11.70
2023-04-09T08:16:50.318Z,11.70
2023-04-09T08:19:18.180Z,11.70
2023-04-09T08:21:44.980Z,11.70
2023-04-09T08:24:12.205Z,11.70
2023-04-09T08:26:40.535Z,11.70
2023-04-09T08:29:08.354Z,11.70
2023-04-09T08:31:36.608Z,11.80
2023-04-09T08:34:03.640Z,11.80
2023-04-09T08:36:31.794Z,11.80
2023-04-09T08:39:00.525Z,11.90
2023-04-09T08:41:29.384Z,11.90
2023-04-09T08:43:58.773Z,11.90
2023-04-09T08:46:27.233Z,11.90
2023-04-09T08:48:54.476Z,12.00
2023-04-09T08:51:24.759Z,12.00
2023-04-09T08:54:04.406Z,12.00
2023-04-09T08:56:31.905Z,12.00
2023-04-09T08:58:58.873Z,12.00
2023-04-09T09:01:27.740Z,12.00
2023-04-09T09:03:55.715Z,12.00
2023-04-09T09:06:30.117Z,12.00
2023-04-09T09:09:06.605Z,12.00
2023-04-09T09:11:41.578Z,12.00
2023-04-09T09:14:19.220Z,12.00
2023-04-09T09:16:58.274Z,12.00
2023-04-09T09:19:25.048Z,12.00
2023-04-09T09:22:02.082Z,12.10
2023-04-09T09:24:29.605Z,12.00
2023-04-09T09:26:57.434Z,12.00
2023-04-09T09:29:24.746Z,12.10
2023-04-09T09:31:53.374Z,12.10
2023-04-09T09:34:21.487Z,12.00
2023-04-09T09:36:48.755Z,12.10
2023-04-09T09:39:17.624Z,12.20
2023-04-09T09:41:46.349Z,12.20
2023-04-09T09:44:30.602Z,12.20
2023-04-09T09:46:58.762Z,12.20
2023-04-09T09:49:25.516Z,12.20
2023-04-09T09:51:56.550Z,12.20
2023-04-09T09:54:25.638Z,12.20
2023-04-09T09:56:55.804Z,12.30
2023-04-09T09:59:32.024Z,12.20
2023-04-09T10:02:02.867Z,12.20
2023-04-09T10:04:32.907Z,12.30
2023-04-09T10:07:02.523Z,12.30
2023-04-09T10:09:29.342Z,12.30
2023-04-09T10:11:57.981Z,12.40
2023-04-09T10:14:26.048Z,12.40
2023-04-09T10:16:53.294Z,12.50
2023-04-09T10:19:20.646Z,12.50
2023-04-09T10:22:16.134Z,12.50
2023-04-09T10:24:43.488Z,12.60
2023-04-09T10:27:12.112Z,12.70
2023-04-09T10:29:45.671Z,12.80
2023-04-09T10:32:13.458Z,12.90
2023-04-09T10:34:42.374Z,12.90
2023-04-09T10:37:13.816Z,13.00
2023-04-09T10:39:44.330Z,13.20
2023-04-09T10:42:17.842Z,13.20
2023-04-09T10:44:44.632Z,13.40
2023-04-09T10:47:12.244Z,13.50
2023-04-09T10:49:40.945Z,13.60
2023-04-09T10:52:12.023Z,13.60
2023-04-09T10:54:44.036Z,13.70
2023-04-09T10:57:14.936Z,13.80
2023-04-09T10:59:42.837Z,13.90
2023-04-09T11:02:18.160Z,14.00
2023-04-09T11:05:26.388Z,14.10
2023-04-09T11:08:12.412Z,14.30
2023-04-09T11:10:58.209Z,14.40
2023-04-09T11:13:25.682Z,14.60
2023-04-09T11:15:52.799Z,14.70
2023-04-09T11:18:27.436Z,14.80
2023-04-09T11:21:01.924Z,14.90
2023-04-09T11:23:29.095Z,15.00
2023-04-09T11:25:56.494Z,15.10
2023-04-09T11:28:24.430Z,15.20
2023-04-09T11:30:52.107Z,15.30
2023-04-09T11:33:20.204Z,15.40
2023-04-09T11:35:47.952Z,15.50
2023-04-09T11:38:14.820Z,15.70
2023-04-09T11:40:49.821Z,15.80
2023-04-09T11:43:17.650Z,15.90
2023-04-09T11:45:48.056Z,15.90
2023-04-09T11:48:18.010Z,16.00
2023-04-09T11:50:44.946Z,16.00
2023-04-09T11:53:22.841Z,16.00
2023-04-09T11:55:53.606Z,16.00
2023-04-09T11:58:25.539Z,16.00
2023-04-09T12:00:58.013Z,16.10
2023-04-09T12:03:34.991Z,16.30
2023-04-09T12:06:02.909Z,16.50
2023-04-09T12:08:31.203Z,16.80
2023-04-09T12:11:07.348Z,16.90
2023-04-09T12:13:34.243Z,17.00
2023-04-09T12:16:01.466Z,17.00
2023-04-09T12:18:28.282Z,17.00
2023-04-09T12:20:54.983Z,17.00
2023-04-09T12:23:21.715Z,17.00
2023-04-09T12:25:48.453Z,17.00
2023-04-09T12:28:17.949Z,16.90
2023-04-09T12:30:45.267Z,17.00
2023-04-09T12:33:12.171Z,17.20
2023-04-09T12:35:39.188Z,17.30
2023-04-09T12:38:06.106Z,17.40
2023-04-09T12:40:32.989Z,17.40
2023-04-09T12:42:59.813Z,17.40
2023-04-09T12:45:27.790Z,17.40
2023-04-09T12:47:54.503Z,17.40
2023-04-09T12:50:21.283Z,17.50
2023-04-09T12:52:48.109Z,17.60
2023-04-09T12:55:15.697Z,17.60
2023-04-09T12:57:47.051Z,17.70
2023-04-09T13:00:14.219Z,17.80
2023-04-09T13:02:41.591Z,17.90
2023-04-09T13:05:08.639Z,18.10
2023-04-09T13:07:35.438Z,18.20
2023-04-09T13:10:02.202Z,18.20
2023-04-09T13:12:28.956Z,18.30
2023-04-09T13:14:56.589Z,18.20
2023-04-09T13:17:23.470Z,18.10
2023-04-09T13:19:51.379Z,18.00
2023-04-09T13:22:19.003Z,17.90
2023-04-09T13:24:45.888Z,17.90
2023-04-09T13:27:12.607Z,17.90
2023-04-09T13:29:39.368Z,17.80
2023-04-09T13:32:10.782Z,17.80
2023-04-09T13:34:38.256Z,17.70
2023-04-09T13:37:05.402Z,17.70
2023-04-09T13:39:32.195Z,17.60
2023-04-09T13:41:59.677Z,17.60
2023-04-09T13:44:26.868Z,17.60
2023-04-09T13:46:53.583Z,17.60
2023-04-09T13:49:21.090Z,17.50
2023-04-09T13:51:50.173Z,17.50
2023-04-09T13:54:17.504Z,17.60
2023-04-09T13:56:46.040Z,17.80
2023-04-09T13:59:12.803Z,17.90
2023-04-09T14:01:39.667Z,18.10
2023-04-09T14:04:06.623Z,18.20
2023-04-09T14:06:33.403Z,18.30
2023-04-09T14:09:00.887Z,18.50
2023-04-09T14:11:27.614Z,18.50
2023-04-09T14:13:55.474Z,18.50
2023-04-09T14:16:22.512Z,18.50
2023-04-09T14:18:49.280Z,18.50
2023-04-09T14:21:16.598Z,18.40
2023-04-09T14:23:43.380Z,18.40
2023-04-09T14:26:10.513Z,18.40
2023-04-09T14:28:37.937Z,18.40
2023-04-09T14:31:05.408Z,18.50
2023-04-09T14:33:32.155Z,18.70
2023-04-09T14:35:59.125Z,19.00
2023-04-09T14:38:25.951Z,19.20
2023-04-09T14:40:53.011Z,19.40
2023-04-09T14:43:19.711Z,19.50
2023-04-09T14:45:46.499Z,19.40
2023-04-09T14:48:13.204Z,19.30
2023-04-09T14:50:39.931Z,19.10
2023-04-09T14:53:06.654Z,19.00
2023-04-09T14:55:33.436Z,18.90
2023-04-09T14:58:03.598Z,18.80
2023-04-09T15:00:31.462Z,18.70
2023-04-09T15:02:58.532Z,18.60
2023-04-09T15:05:25.510Z,18.70
2023-04-09T15:07:54.390Z,18.60
2023-04-09T15:10:21.326Z,18.60
2023-04-09T15:12:48.041Z,18.80
2023-04-09T15:15:14.788Z,18.90
2023-04-09T15:17:41.631Z,18.90
2023-04-09T15:20:08.655Z,18.90
2023-04-09T15:22:35.640Z,18.80
2023-04-09T15:25:02.385Z,18.70
2023-04-09T15:27:29.152Z,18.60
2023-04-09T15:29:55.866Z,18.60
2023-04-09T15:32:22.696Z,18.40
2023-04-09T15:34:50.246Z,18.40
2023-04-09T15:37:16.974Z,18.30
2023-04-09T15:39:43.755Z,18.30
2023-04-09T15:42:11.651Z,18.20
2023-04-09T15:44:40.525Z,18.10
2023-04-09T15:47:07.685Z,18.10
2023-04-09T15:49:36.756Z,18.10
2023-04-09T15:52:03.948Z,18.10
2023-04-09T15:54:31.027Z,18.10
2023-04-09T15:56:57.743Z,18.20
2023-04-09T15:59:24.514Z,18.20
2023-04-09T16:01:52.092Z,18.40
2023-04-09T16:04:18.868Z,18.50
2023-04-09T16:06:45.670Z,18.60
2023-04-09T16:09:12.359Z,18.70
2023-04-09T16:11:39.220Z,18.70
2023-04-09T16:14:06.038Z,18.60
2023-04-09T16:16:32.852Z,18.50
2023-04-09T16:19:01.035Z,18.30
2023-04-09T16:21:28.179Z,18.20
2023-04-09T16:23:54.909Z,18.10
2023-04-09T16:26:21.742Z,18.10
2023-04-09T16:28:48.952Z,18.20
2023-04-09T16:31:15.975Z,18.20
2023-04-09T16:33:42.736Z,18.30
2023-04-09T16:36:09.468Z,18.40
2023-04-09T16:38:36.501Z,18.50
2023-04-09T16:41:03.240Z,18.50
2023-04-09T16:43:30.274Z,18.40
2023-04-09T16:45:57.172Z,18.40
2023-04-09T16:48:24.120Z,18.40
2023-04-09T16:50:50.844Z,18.40
2023-04-09T16:53:17.643Z,18.30
2023-04-09T16:55:44.904Z,18.30
2023-04-09T16:58:11.678Z,18.30
2023-04-09T17:00:39.979Z,18.20
2023-04-09T17:03:06.943Z,18.10
2023-04-09T17:05:34.650Z,18.00
2023-04-09T17:08:01.366Z,17.90
2023-04-09T17:10:28.154Z,17.70
2023-04-09T17:12:55.116Z,17.60
2023-04-09T17:15:22.764Z,17.50
2023-04-09T17:17:52.347Z,17.50
2023-04-09T17:20:20.880Z,17.40
2023-04-09T17:22:47.662Z,17.40
2023-04-09T17:25:14.405Z,17.30
2023-04-09T17:27:43.646Z,17.30
2023-04-09T17:30:11.080Z,17.30
2023-04-09T17:32:39.430Z,17.30
2023-04-09T17:35:07.530Z,17.30
2023-04-09T17:37:34.781Z,17.20
2023-04-09T17:40:05.355Z,17.10
2023-04-09T17:42:32.099Z,17.00
2023-04-09T17:44:59.026Z,16.90
2023-04-09T17:47:25.972Z,16.80
2023-04-09T17:49:52.803Z,16.70
2023-04-09T17:52:20.478Z,16.60
2023-04-09T17:54:47.279Z,16.50
2023-04-09T17:57:14.001Z,16.40
2023-04-09T17:59:41.024Z,16.40
2023-04-09T18:02:08.044Z,16.30
2023-04-09T18:04:35.418Z,16.20
2023-04-09T18:07:02.967Z,16.10
2023-04-09T18:09:29.670Z,16.10
2023-04-09T18:11:57.780Z,16.00
2023-04-09T18:14:24.824Z,15.90
2023-04-09T18:16:51.796Z,15.90
2023-04-09T18:19:18.582Z,15.80
2023-04-09T18:21:45.302Z,15.70
2023-04-09T18:24:11.966Z,15.60
2023-04-09T18:26:38.741Z,15.60
2023-04-09T18:29:05.981Z,15.50
2023-04-09T18:31:32.970Z,15.40
2023-04-09T18:33:59.661Z,15.40
2023-04-09T18:36:28.199Z,15.30
2023-04-09T18:38:55.797Z,15.30
2023-04-09T18:41:26.808Z,15.20
2023-04-09T18:43:54.188Z,15.10
2023-04-09T18:46:20.971Z,15.10
2023-04-09T18:48:47.752Z,15.10
2023-04-09T18:51:14.853Z,15.00
2023-04-09T18:53:42.102Z,14.90
2023-04-09T18:56:09.342Z,14.90
2023-04-09T18:58:36.359Z,14.80
2023-04-09T19:01:11.197Z,14.70
2023-04-09T19:03:38.856Z,14.60
2023-04-09T19:06:17.932Z,14.60
2023-04-09T19:08:46.127Z,14.50
2023-04-09T19:11:13.880Z,14.50
2023-04-09T19:13:40.810Z,14.40
2023-04-09T19:16:09.372Z,14.30
2023-04-09T19:18:37.313Z,14.20
2023-04-09T19:21:05.265Z,14.20
2023-04-09T19:23:34.202Z,14.10
2023-04-09T19:26:01.790Z,14.00
2023-04-09T19:28:28.867Z,14.00
2023-04-09T19:30:55.698Z,13.90
2023-04-09T19:33:26.937Z,13.90
2023-04-09T19:35:55.886Z,13.80
2023-04-09T19:38:22.880Z,13.80
2023-04-09T19:40:49.669Z,13.70
2023-04-09T19:43:16.485Z,13.60
2023-04-09T19:45:43.538Z,13.60
2023-04-09T19:48:10.516Z,13.60
2023-04-09T19:50:38.783Z,13.50
2023-04-09T19:53:05.986Z,13.50
2023-04-09T19:55:33.831Z,13.40
2023-04-09T19:58:00.888Z,13.40
2023-04-09T20:00:28.249Z,13.40
2023-04-09T20:02:55.736Z,13.30
2023-04-09T20:05:22.883Z,13.20
2023-04-09T20:07:50.737Z,13.20
2023-04-09T20:10:17.529Z,13.20
2023-04-09T20:12:51.142Z,13.10
2023-04-09T20:15:20.194Z,13.10
2023-04-09T20:17:51.080Z,13.10
2023-04-09T20:20:19.779Z,13.00
2023-04-09T20:22:55.651Z,12.90
2023-04-09T20:25:23.544Z,12.90
2023-04-09T20:27:52.818Z,12.90
2023-04-09T20:30:19.743Z,12.90
2023-04-09T20:32:47.407Z,12.80
2023-04-09T20:35:14.543Z,12.80
2023-04-09T20:37:41.230Z,12.80
2023-04-09T20:40:08.445Z,12.70
2023-04-09T20:42:35.490Z,12.70
2023-04-09T20:45:02.300Z,12.60
2023-04-09T20:47:29.158Z,12.60
2023-04-09T20:49:59.734Z,12.50
2023-04-09T20:52:28.501Z,12.50
2023-04-09T20:54:56.871Z,12.40
2023-04-09T20:57:23.838Z,12.40
2023-04-09T20:59:50.811Z,12.30
2023-04-09T21:02:17.824Z,12.20
2023-04-09T21:04:44.744Z,12.20
2023-04-09T21:07:11.607Z,12.20
2023-04-09T21:09:38.484Z,12.20
2023-04-09T21:12:06.104Z,12.10
2023-04-09T21:14:32.905Z,12.10
2023-04-09T21:16:59.753Z,12.10
2023-04-09T21:19:26.594Z,12.10
2023-04-09T21:21:53.299Z,12.00
2023-04-09T21:24:20.106Z,12.00
2023-04-09T21:26:51.564Z,12.00
2023-04-09T21:29:20.357Z,12.00
2023-04-09T21:31:48.511Z,11.90
2023-04-09T21:34:15.922Z,11.90
2023-04-09T21:36:44.682Z,12.00
2023-04-09T21:39:11.621Z,11.90
2023-04-09T21:41:39.120Z,12.00
2023-04-09T21:44:08.502Z,11.90
2023-04-09T21:46:40.510Z,11.90
2023-04-09T21:49:08.020Z,11.80
2023-04-09T21:51:34.769Z,11.90
2023-04-09T21:54:08.442Z,11.80
2023-04-09T21:56:36.035Z,11.80
2023-04-09T21:59:03.081Z,11.80
2023-04-09T22:01:31.355Z,11.80
2023-04-09T22:03:59.602Z,11.80
2023-04-09T22:06:27.302Z,11.80
2023-04-09T22:08:56.732Z,11.70
2023-04-09T22:11:26.804Z,11.70
2023-04-09T22:13:53.786Z,11.70
2023-04-09T22:16:20.601Z,11.70
2023-04-09T22:18:47.443Z,11.70
2023-04-09T22:21:16.274Z,11.60
2023-04-09T22:23:43.489Z,11.60
2023-04-09T22:26:10.200Z,11.60
2023-04-09T22:28:36.914Z,11.60
2023-04-09T22:31:03.905Z,11.50
2023-04-09T22:33:30.723Z,11.50
2023-04-09T22:35:58.831Z,11.50
2023-04-09T22:38:26.056Z,11.50
2023-04-09T22:40:52.775Z,11.50
2023-04-09T22:43:19.723Z,11.40
2023-04-09T22:45:51.957Z,11.40
2023-04-09T22:48:19.296Z,11.40
2023-04-09T22:50:46.471Z,11.40
2023-04-09T22:53:18.789Z,11.30
2023-04-09T22:55:54.342Z,11.30
2023-04-09T22:58:21.144Z,11.30
2023-04-09T23:00:48.178Z,11.30
2023-04-09T23:03:15.266Z,11.20
2023-04-09T23:05:42.276Z,11.20
2023-04-09T23:08:09.727Z,11.30
2023-04-09T23:10:36.574Z,11.20
2023-04-09T23:13:03.610Z,11.20
2023-04-09T23:15:30.383Z,11.20
2023-04-09T23:17:57.226Z,11.20
2023-04-09T23:20:24.017Z,11.10
2023-04-09T23:22:51.090Z,11.10
2023-04-09T23:25:18.580Z,11.10
2023-04-09T23:27:46.529Z,11.10
2023-04-09T23:30:17.006Z,11.00
2023-04-09T23:32:48.089Z,11.00
2023-04-09T23:35:15.406Z,11.00
2023-04-09T23:37:42.594Z,11.00
2023-04-09T23:40:10.250Z,11.00
2023-04-09T23:42:36.990Z,11.00
2023-04-09T23:45:05.728Z,11.00
2023-04-09T23:47:34.640Z,11.00
2023-04-09T23:50:04.847Z,11.00
2023-04-09T23:52:34.329Z,11.00
2023-04-09T23:55:01.438Z,11.00
2023-04-09T23:57:28.793Z,11.00
2023-04-09T23:59:56.037Z,11.10
